Time;durP1;ratioP1;P1;durP2;ratioP2;P2;SDS_P1;SDS_P2;PMS_P1;PMS_P2;Temp;Humidity;BMP_temperature;BMP_pressure;BME280_temperature;BME280_humidity;BME280_pressure;Samples;Min_cycle;Max_cycle;Signal;HPM_P1;HPM_P2
2023/12/01 05:32:29;;;;;;;;;47.00;38.00;;;;;16.42;39.48;99797.69;5010177;28;46797;-75
2023/12/01 05:34:54;;;;;;;;;30.50;29.00;;;;;16.50;39.48;99810.59;5015966;28;45297;-73
2023/12/01 05:37:19;;;;;;;;;47.25;38.00;;;;;16.50;38.67;99811.41;5016230;28;47829;-76
2023/12/01 05:39:45;;;;;;;;;40.75;38.50;;;;;16.44;39.29;99808.38;5015515;28;58173;-74
2023/12/01 05:42:10;;;;;;;;;38.75;33.00;;;;;16.53;39.78;99818.41;5023893;28;45891;-74
2023/12/01 05:44:35;;;;;;;;;33.25;31.50;;;;;16.50;39.42;99814.13;5015791;28;45495;-73
2023/12/01 05:47:01;;;;;;;;;48.75;40.00;;;;;16.56;38.84;99797.38;5015763;28;52990;-75
2023/12/01 05:49:26;;;;;;;;;37.00;31.25;;;;;16.48;39.23;99790.91;5015088;28;56671;-76
2023/12/01 05:51:53;;;;;;;;;42.50;37.50;;;;;16.47;38.68;99800.00;5015733;28;46238;-76
2023/12/01 05:54:18;;;;;;;;;42.25;37.75;;;;;16.45;38.58;99808.25;5015468;28;52082;-75
2023/12/01 05:56:43;;;;;;;;;42.00;37.50;;;;;16.47;38.91;99810.84;5016030;28;45192;-76
2023/12/01 05:59:09;;;;;;;;;54.00;41.50;;;;;16.39;39.13;99807.94;5015622;28;45371;-75
2023/12/01 06:01:34;;;;;;;;;47.25;31.00;;;;;16.40;38.58;99815.06;5015395;28;54701;-74
2023/12/01 06:04:02;;;;;;;;;46.75;41.00;;;;;16.35;39.45;99822.69;5015789;28;45286;-74
2023/12/01 06:06:27;;;;;;;;;47.50;37.25;;;;;16.34;39.00;99808.28;4997998;28;45364;-77
2023/12/01 06:08:53;;;;;;;;;53.50;41.25;;;;;16.35;38.74;99809.16;5015618;28;45342;-74
2023/12/01 06:11:18;;;;;;;;;45.00;39.00;;;;;16.33;39.10;99812.00;5015607;28;45656;-75
2023/12/01 06:13:43;;;;;;;;;51.25;40.75;;;;;16.37;38.87;99824.28;4996549;28;61787;-75
2023/12/01 06:16:09;;;;;;;;;52.25;40.25;;;;;16.36;39.08;99822.56;5015753;28;45356;-76
2023/12/01 06:18:34;;;;;;;;;44.50;38.50;;;;;16.39;38.80;99818.75;5015411;28;45344;-76
2023/12/01 06:21:00;;;;;;;;;47.25;38.00;;;;;16.34;38.76;99820.97;4997492;28;47157;-74
2023/12/01 06:23:25;;;;;;;;;36.25;35.75;;;;;16.38;39.05;99828.72;5015495;28;45281;-75
2023/12/01 06:25:51;;;;;;;;;37.75;35.25;;;;;16.34;39.47;99824.53;5015826;28;45376;-76
2023/12/01 06:28:16;;;;;;;;;52.75;39.00;;;;;16.35;39.53;99822.69;5015283;28;47465;-75
2023/12/01 06:30:41;;;;;;;;;45.25;39.50;;;;;16.40;39.52;99832.16;5015024;28;47047;-75
2023/12/01 06:33:07;;;;;;;;;58.00;43.25;;;;;16.30;38.86;99831.19;4996984;28;52429;-73
2023/12/01 06:35:32;;;;;;;;;46.00;38.00;;;;;16.28;39.46;99819.63;5014981;28;45468;-76
2023/12/01 06:37:57;;;;;;;;;51.50;38.75;;;;;16.34;38.84;99826.38;5015059;28;45226;-74
2023/12/01 06:40:24;;;;;;;;;48.50;40.75;;;;;16.34;38.69;99834.47;5017154;28;47881;-74
2023/12/01 06:42:54;;;;;;;;;54.50;42.25;;;;;16.37;39.18;99829.69;5019879;28;45620;-75
2023/12/01 06:45:21;;;;;;;;;41.75;37.75;;;;;16.43;39.44;99833.72;5015218;28;45375;-75
2023/12/01 06:47:48;;;;;;;;;58.00;41.25;;;;;16.41;39.09;99831.16;5015177;28;45312;-75
2023/12/01 06:50:15;;;;;;;;;52.25;40.75;;;;;16.51;39.01;99834.78;5015416;28;45412;-75
2023/12/01 06:52:47;;;;;;;;;46.50;38.25;;;;;16.54;38.84;99845.34;5015050;28;45219;-76
2023/12/01 06:55:13;;;;;;;;;47.50;40.25;;;;;16.53;38.94;99837.38;4997720;28;45328;-76
2023/12/01 06:57:40;;;;;;;;;44.50;40.50;;;;;16.53;38.90;99835.50;5015003;28;45336;-75
2023/12/01 07:00:07;;;;;;;;;48.75;39.75;;;;;16.52;38.55;99844.63;5015218;28;45456;-76
2023/12/01 07:02:36;;;;;;;;;51.00;40.25;;;;;16.52;38.50;99841.91;5014853;28;45369;-73
2023/12/01 07:05:02;;;;;;;;;47.25;39.50;;;;;16.52;38.91;99836.50;5015532;28;45443;-74
2023/12/01 07:07:30;;;;;;;;;56.25;42.00;;;;;16.51;38.62;99836.63;5015238;28;45202;-74
2023/12/01 07:09:57;;;;;;;;;47.00;39.50;;;;;16.48;38.64;99831.50;4997206;28;47475;-76
2023/12/01 07:12:22;;;;;;;;;48.75;39.50;;;;;16.43;39.19;99839.97;4996610;28;45629;-77
2023/12/01 07:14:48;;;;;;;;;40.25;31.25;;;;;16.47;39.13;99835.19;4997040;28;45484;-76
2023/12/01 07:17:14;;;;;;;;;46.00;40.75;;;;;16.57;39.56;99842.41;5014301;28;45411;-76
2023/12/01 07:19:40;;;;;;;;;47.50;36.75;;;;;16.58;39.09;99846.81;5014359;28;45610;-75
2023/12/01 07:22:05;;;;;;;;;43.00;37.50;;;;;16.55;38.55;99857.91;5014633;28;45427;-75
2023/12/01 07:24:31;;;;;;;;;48.00;40.75;;;;;16.47;38.63;99844.16;4996643;28;45411;-75
2023/12/01 07:26:56;;;;;;;;;38.75;35.75;;;;;16.42;38.27;99853.63;5014680;28;45622;-76
2023/12/01 07:29:21;;;;;;;;;53.75;42.25;;;;;16.31;38.75;99840.16;4996374;28;53174;-76
2023/12/01 07:31:47;;;;;;;;;46.50;39.25;;;;;16.09;38.43;99806.78;5014323;28;45439;-77
2023/12/01 07:34:12;;;;;;;;;48.25;38.75;;;;;16.32;38.90;99839.19;5014561;28;45367;-77
2023/12/01 07:36:39;;;;;;;;;46.00;38.00;;;;;16.32;38.65;99844.59;5029580;28;46160;-77
2023/12/01 07:39:04;;;;;;;;;45.75;39.25;;;;;16.23;38.43;99860.63;5014608;28;45508;-76
2023/12/01 07:41:31;;;;;;;;;57.00;41.50;;;;;16.15;38.86;99835.19;5022053;28;45270;-77
2023/12/01 07:43:57;;;;;;;;;55.75;43.00;;;;;16.21;38.67;99845.50;5013530;28;45309;-76
2023/12/01 07:46:22;;;;;;;;;51.00;42.25;;;;;16.13;38.57;99845.28;5016019;28;45380;-78
2023/12/01 07:48:47;;;;;;;;;45.00;41.00;;;;;16.04;38.95;99833.38;5014577;28;45306;-76
2023/12/01 07:51:15;;;;;;;;;49.75;42.50;;;;;16.00;38.90;99845.41;4995542;28;45760;-77
2023/12/01 07:53:44;;;;;;;;;53.75;40.00;;;;;16.00;39.18;99842.72;5014431;28;45385;-77
2023/12/01 07:56:10;;;;;;;;;53.75;44.00;;;;;15.99;39.10;99854.50;5016298;28;45239;-77
2023/12/01 07:58:35;;;;;;;;;53.25;41.75;;;;;15.97;39.01;99855.63;4998067;28;46765;-76
2023/12/01 08:01:01;;;;;;;;;52.25;41.00;;;;;16.04;38.70;99873.06;5029778;28;47624;-79
2023/12/01 08:03:26;;;;;;;;;47.00;39.00;;;;;15.94;38.81;99853.19;4998807;28;45399;-81
2023/12/01 08:05:52;;;;;;;;;53.00;42.50;;;;;15.86;38.97;99845.69;5016386;28;45506;-78
2023/12/01 08:08:17;;;;;;;;;40.50;29.25;;;;;15.96;38.83;99865.59;5015699;28;46027;-77
2023/12/01 08:10:42;;;;;;;;;45.75;38.00;;;;;15.95;38.79;99871.97;5016145;28;45364;-76
2023/12/01 08:13:08;;;;;;;;;42.25;35.25;;;;;15.93;39.16;99867.66;5011394;28;45651;-76
2023/12/01 08:15:33;;;;;;;;;38.75;34.25;;;;;15.87;38.54;99864.50;5016015;28;45309;-75
2023/12/01 08:18:00;;;;;;;;;43.00;38.50;;;;;15.84;39.03;99869.28;4999891;28;48539;-76
2023/12/01 08:20:28;;;;;;;;;44.25;36.50;;;;;15.88;39.10;99882.44;5017123;28;45440;-78
2023/12/01 08:22:54;;;;;;;;;51.50;38.00;;;;;15.79;38.95;99863.41;5017716;28;45378;-77
2023/12/01 08:25:23;;;;;;;;;54.50;40.25;;;;;15.81;38.75;99886.63;5003892;28;46363;-77
2023/12/01 08:27:52;;;;;;;;;53.50;40.00;;;;;15.66;39.01;99865.38;5003347;28;47915;-77
2023/12/01 08:30:18;;;;;;;;;48.25;38.00;;;;;15.81;38.95;99899.28;5008580;28;45496;-76
2023/12/01 08:32:44;;;;;;;;;44.75;36.50;;;;;15.83;38.84;99894.59;5004869;28;45384;-76
2023/12/01 08:35:09;;;;;;;;;49.50;39.50;;;;;15.82;38.68;99888.31;5005732;28;46509;-77
2023/12/01 08:37:35;;;;;;;;;48.75;40.00;;;;;15.82;38.96;99882.09;5038442;28;46761;-77
2023/12/01 08:40:04;;;;;;;;;52.00;40.75;;;;;15.89;38.73;99894.13;5022562;28;45384;-77
2023/12/01 08:42:31;;;;;;;;;54.50;44.75;;;;;15.88;38.57;99889.69;5011997;28;45360;-77
2023/12/01 08:44:56;;;;;;;;;53.50;42.50;;;;;15.84;38.28;99891.75;5018084;28;45391;-81
2023/12/01 08:47:23;;;;;;;;;53.50;43.50;;;;;15.86;38.72;99895.22;5002327;28;46930;-78
2023/12/01 08:49:51;;;;;;;;;48.50;40.25;;;;;15.73;38.70;99869.31;5020455;28;45435;-76
2023/12/01 08:52:17;;;;;;;;;57.25;45.50;;;;;15.83;38.31;99878.38;5002487;28;45314;-76
2023/12/01 08:54:43;;;;;;;;;59.50;42.25;;;;;15.75;38.61;99857.38;5005718;28;45628;-77
2023/12/01 08:57:09;;;;;;;;;47.00;40.25;;;;;15.86;38.24;99859.22;5004248;28;47695;-77
2023/12/01 08:59:34;;;;;;;;;44.25;37.75;;;;;15.73;38.35;99837.75;5008809;28;45294;-76
2023/12/01 09:02:00;;;;;;;;;56.50;43.75;;;;;16.10;38.29;99888.78;5006159;28;45362;-77
2023/12/01 09:04:26;;;;;;;;;52.50;41.25;;;;;16.03;38.21;99868.63;5004225;28;47156;-77
2023/12/01 09:06:51;;;;;;;;;52.00;40.75;;;;;16.05;38.20;99874.78;5002595;28;45499;-78
2023/12/01 09:09:17;;;;;;;;;54.00;43.50;;;;;16.08;38.35;99874.50;5018672;28;46376;-76
2023/12/01 09:11:42;;;;;;;;;44.00;38.00;;;;;16.12;38.48;99878.69;5000241;28;45493;-78
2023/12/01 09:14:08;;;;;;;;;52.00;41.25;;;;;16.12;38.09;99890.38;5017384;28;45462;-79
2023/12/01 09:16:44;;;;;;;;;46.75;40.00;;;;;15.92;38.08;99858.69;5020921;28;46178;-77
2023/12/01 09:19:10;;;;;;;;;53.25;41.50;;;;;16.02;38.38;99881.28;5004942;28;45373;-77
2023/12/01 09:21:38;;;;;;;;;50.50;39.50;;;;;16.11;38.32;99885.09;4998001;28;45428;-77
2023/12/01 09:24:07;;;;;;;;;54.25;44.00;;;;;16.15;38.04;99892.84;5003529;28;45628;-76
2023/12/01 09:26:33;;;;;;;;;56.25;43.00;;;;;16.12;38.10;99894.94;4997107;28;47644;-76
2023/12/01 09:28:58;;;;;;;;;54.50;42.50;;;;;16.18;38.19;99900.69;5030000;28;45700;-77
2023/12/01 09:31:24;;;;;;;;;57.50;42.00;;;;;16.15;38.00;99911.78;5014116;28;45506;-76
2023/12/01 09:33:49;;;;;;;;;52.25;43.00;;;;;16.04;37.72;99900.09;4996532;28;45828;-78
2023/12/01 09:36:17;;;;;;;;;50.00;35.75;;;;;16.02;38.16;99908.34;5014515;28;45665;-77
2023/12/01 09:38:43;;;;;;;;;51.00;44.25;;;;;16.00;38.24;99913.00;4997193;28;45797;-76
2023/12/01 09:41:09;;;;;;;;;53.25;40.00;;;;;16.08;38.28;99929.47;5023303;28;45431;-77
2023/12/01 09:43:35;;;;;;;;;47.50;37.25;;;;;16.12;37.82;99922.81;5014592;28;45480;-76
2023/12/01 09:46:01;;;;;;;;;47.25;41.00;;;;;16.08;37.91;99934.00;4997528;28;47009;-77
2023/12/01 09:48:33;;;;;;;;;49.50;40.00;;;;;15.95;38.19;99919.78;4998423;28;45609;-76
2023/12/01 09:50:59;;;;;;;;;53.75;43.00;;;;;16.08;37.48;99942.97;5010639;28;45476;-77
2023/12/01 09:53:24;;;;;;;;;47.50;39.00;;;;;15.95;38.08;99917.06;4998312;28;47181;-77
2023/12/01 09:55:50;;;;;;;;;53.50;41.75;;;;;15.89;37.95;99921.16;5016230;28;45439;-77
2023/12/01 09:58:16;;;;;;;;;48.75;41.00;;;;;16.04;37.79;99948.78;5016900;28;45340;-77
2023/12/01 10:00:41;;;;;;;;;47.25;41.75;;;;;15.89;38.27;99940.94;5016587;28;45297;-77
2023/12/01 10:03:06;;;;;;;;;51.25;42.00;;;;;15.84;38.01;99935.00;5015813;28;45258;-78
2023/12/01 10:05:37;;;;;;;;;51.25;43.00;;;;;15.88;37.95;99955.41;5015802;28;45530;-76
2023/12/01 10:08:04;;;;;;;;;55.00;41.50;;;;;15.60;37.86;99915.38;5016433;28;45216;-77
2023/12/01 10:10:30;;;;;;;;;53.75;43.50;;;;;15.96;38.04;99980.97;5015853;28;45352;-77
2023/12/01 10:12:58;;;;;;;;;51.00;41.50;;;;;15.80;37.90;99962.44;5016405;28;45380;-76
2023/12/01 10:15:25;;;;;;;;;51.25;39.25;;;;;15.91;38.05;99986.72;5002211;28;47598;-77
2023/12/01 10:17:54;;;;;;;;;46.00;37.50;;;;;15.83;37.93;99978.38;5015877;28;45331;-77
2023/12/01 10:20:21;;;;;;;;;42.50;38.50;;;;;15.92;37.73;99979.47;5015843;28;45431;-76
2023/12/01 10:22:51;;;;;;;;;53.00;40.75;;;;;15.69;38.14;99935.38;4997609;28;46623;-76
2023/12/01 10:25:17;;;;;;;;;41.75;38.25;;;;;15.86;37.98;99976.31;5016354;28;46162;-75
2023/12/01 10:27:53;;;;;;;;;53.00;44.50;;;;;15.76;37.86;99959.09;4998182;28;45342;-78
2023/12/01 10:30:19;;;;;;;;;51.75;42.75;;;;;15.88;37.61;99974.34;5016254;28;45518;-77
2023/12/01 10:32:44;;;;;;;;;50.75;43.00;;;;;15.91;37.92;99965.09;5015493;28;45396;-77
2023/12/01 10:35:10;;;;;;;;;58.50;42.25;;;;;15.82;37.62;99949.66;5014983;28;45446;-78
2023/12/01 10:37:38;;;;;;;;;56.75;40.00;;;;;15.83;37.75;99959.44;5015173;28;45344;-77
2023/12/01 10:40:07;;;;;;;;;58.25;46.00;;;;;15.98;37.74;99988.00;5016438;28;45479;-76
2023/12/01 10:42:34;;;;;;;;;53.25;42.00;;;;;15.95;37.45;99985.53;4996388;28;46508;-77
2023/12/01 10:45:01;;;;;;;;;54.25;40.00;;;;;15.96;37.64;99983.69;5014578;28;46330;-76
2023/12/01 10:47:28;;;;;;;;;50.50;37.25;;;;;15.80;37.51;99974.09;4997194;28;45384;-76
2023/12/01 10:49:57;;;;;;;;;58.75;46.00;;;;;15.80;37.50;99979.50;4997085;28;45310;-77
2023/12/01 10:52:24;;;;;;;;;49.00;39.25;;;;;15.92;37.72;99977.66;5016503;28;45305;-76
2023/12/01 10:54:51;;;;;;;;;53.00;41.75;;;;;15.85;38.00;99960.19;5015998;28;46573;-78
2023/12/01 10:57:33;;;;;;;;;49.75;36.50;;;;;16.01;37.52;99984.16;5014074;28;45487;-77
2023/12/01 11:00:05;;;;;;;;;40.50;36.75;;;;;15.95;37.33;99968.44;5015877;28;45348;-77
2023/12/01 11:02:38;;;;;;;;;48.25;38.75;;;;;16.02;37.44;99975.94;4997035;28;45500;-77
2023/12/01 11:05:07;;;;;;;;;50.75;42.00;;;;;15.92;37.11;99961.41;5014688;28;45931;-77
2023/12/01 11:08:17;;;;;;;;;51.50;38.50;;;;;16.01;37.21;99982.31;5014989;28;45320;-77
2023/12/01 11:10:55;;;;;;;;;52.50;42.75;;;;;16.01;37.01;99974.19;4993575;28;45649;-76
2023/12/01 11:13:38;;;;;;;;;49.50;39.75;;;;;15.97;37.34;99974.59;5014720;28;45279;-77
2023/12/01 11:16:07;;;;;;;;;53.50;42.00;;;;;15.84;37.49;99978.25;5013275;28;46474;-77
2023/12/01 11:18:32;;;;;;;;;49.25;42.75;;;;;15.81;37.69;99958.75;4996698;28;45258;-77
2023/12/01 11:20:57;;;;;;;;;51.75;41.50;;;;;15.82;37.78;99966.69;4997642;28;45392;-74
2023/12/01 11:23:24;;;;;;;;;50.25;39.50;;;;;15.87;37.81;99969.06;5014962;28;45389;-77
2023/12/01 11:26:05;;;;;;;;;60.75;42.50;;;;;15.79;37.43;99952.59;5014864;28;47161;-80
2023/12/01 11:31:21;;;;;;;;;56.75;42.25;;;;;15.79;37.56;99956.16;5019952;28;45420;-80
2023/12/01 11:33:57;;;;;;;;;53.75;41.50;;;;;15.78;37.97;99959.84;5021443;28;45467;-77
2023/12/01 11:36:29;;;;;;;;;57.75;42.25;;;;;15.75;37.77;99965.47;5020999;28;45414;-78
2023/12/01 11:41:40;;;;;;;;;50.50;42.00;;;;;15.75;37.61;99949.25;5030204;28;45328;-79
2023/12/01 11:44:09;;;;;;;;;52.25;42.50;;;;;15.59;37.70;99940.66;5022168;28;45441;-79
2023/12/01 11:46:37;;;;;;;;;47.50;36.75;;;;;15.70;37.74;99939.81;5021144;28;45330;-80
2023/12/01 11:49:04;;;;;;;;;50.50;42.00;;;;;15.65;37.78;99931.22;5021382;28;45242;-79
2023/12/01 11:51:30;;;;;;;;;51.00;37.75;;;;;15.58;37.44;99929.97;5036173;28;45408;-83
2023/12/01 11:53:57;;;;;;;;;46.50;38.00;;;;;15.56;37.85;99929.25;5006051;28;46523;-83
2023/12/01 11:56:31;;;;;;;;;38.25;33.00;;;;;15.67;37.53;99959.81;5024043;28;45650;-80
2023/12/01 11:58:56;;;;;;;;;39.25;33.00;;;;;15.62;37.32;99953.06;5003311;28;45504;-78
2023/12/01 12:01:22;;;;;;;;;45.00;39.00;;;;;15.64;37.44;99957.38;5003178;28;45374;-73
2023/12/01 12:03:55;;;;;;;;;41.75;35.75;;;;;15.56;37.82;99957.13;5019123;28;45618;-78
2023/12/01 12:06:21;;;;;;;;;37.00;24.00;;;;;15.49;37.40;99954.00;5020563;28;46287;-75
2023/12/01 12:08:48;;;;;;;;;38.50;33.75;;;;;15.45;37.69;99957.94;5002766;28;45335;-75
2023/12/01 12:11:14;;;;;;;;;36.25;34.75;;;;;15.41;37.61;99952.88;5020408;28;45601;-74
2023/12/01 12:13:39;;;;;;;;;41.00;35.00;;;;;15.47;37.87;99957.81;5022194;28;46358;-78
2023/12/01 12:16:07;;;;;;;;;52.25;38.75;;;;;15.48;37.50;99954.97;4997677;28;47916;-78
2023/12/01 12:18:34;;;;;;;;;40.25;36.50;;;;;15.40;37.83;99946.63;5005828;28;45467;-75
2023/12/01 12:21:04;;;;;;;;;43.00;37.50;;;;;15.46;37.91;99956.97;5006486;28;45321;-77
2023/12/01 12:23:32;;;;;;;;;48.50;39.25;;;;;15.42;37.89;99955.47;5023372;28;45326;-76
2023/12/01 12:26:17;;;;;;;;;42.00;37.00;;;;;15.39;38.10;99963.81;5002008;28;45478;-74
2023/12/01 12:28:49;;;;;;;;;42.50;36.00;;;;;15.46;38.26;99956.97;5011889;28;45469;-76
2023/12/01 12:31:15;;;;;;;;;40.25;35.75;;;;;15.48;37.98;99962.25;5006512;28;45701;-74
2023/12/01 12:33:43;;;;;;;;;48.00;40.50;;;;;15.40;37.71;99943.91;5008627;28;45480;-74
2023/12/01 12:36:12;;;;;;;;;44.25;38.75;;;;;15.47;37.92;99955.97;5021858;28;46017;-73
2023/12/01 12:38:37;;;;;;;;;51.75;40.75;;;;;15.57;37.60;99958.00;5026291;28;45331;-77
2023/12/01 12:41:04;;;;;;;;;45.75;37.00;;;;;15.59;37.23;99947.91;5027270;28;45505;-78
2023/12/01 12:43:31;;;;;;;;;46.00;37.75;;;;;15.59;37.54;99951.47;5017463;28;45395;-77
2023/12/01 12:45:59;;;;;;;;;44.25;37.75;;;;;15.58;37.44;99944.34;5017042;28;45377;-79
2023/12/01 12:48:26;;;;;;;;;52.00;38.25;;;;;15.66;37.27;99951.84;4999659;28;45837;-78
2023/12/01 12:50:52;;;;;;;;;46.25;37.00;;;;;15.70;37.24;99950.63;5017528;28;45397;-79
2023/12/01 12:53:17;;;;;;;;;47.00;39.00;;;;;15.68;37.22;99936.38;5002022;28;47363;-77
2023/12/01 12:55:42;;;;;;;;;37.75;35.00;;;;;15.68;37.51;99958.84;5004395;28;48063;-77
2023/12/01 12:58:08;;;;;;;;;44.25;39.00;;;;;15.59;36.95;99935.25;4998377;28;45369;-77
2023/12/01 13:00:33;;;;;;;;;49.75;37.25;;;;;15.57;37.34;99930.97;4996681;28;45338;-77
2023/12/01 13:02:58;;;;;;;;;44.25;36.25;;;;;15.70;36.78;99953.31;5031965;28;47311;-77
2023/12/01 13:05:26;;;;;;;;;39.50;35.00;;;;;15.64;36.62;99943.00;5013895;28;45840;-75
2023/12/01 13:07:52;;;;;;;;;40.00;34.75;;;;;15.69;36.90;99957.00;5015704;28;45364;-76
2023/12/01 13:10:17;;;;;;;;;42.50;35.50;;;;;15.70;36.82;99946.06;5016286;28;45678;-76
2023/12/01 13:12:42;;;;;;;;;39.00;34.75;;;;;15.75;36.69;99951.09;5016076;28;54480;-79
2023/12/01 13:15:08;;;;;;;;;42.50;37.00;;;;;15.78;36.81;99946.31;5016137;28;53649;-78
2023/12/01 13:17:34;;;;;;;;;30.25;28.75;;;;;15.71;36.62;99939.69;5017468;28;45825;-77
2023/12/01 13:19:59;;;;;;;;;41.00;35.75;;;;;15.76;36.68;99952.81;5015720;28;45432;-76
2023/12/01 13:22:25;;;;;;;;;42.75;36.75;;;;;15.69;36.89;99948.91;5016085;28;45513;-77
2023/12/01 13:24:50;;;;;;;;;41.00;36.00;;;;;15.42;36.45;99904.16;4998022;28;59223;-77
2023/12/01 13:27:15;;;;;;;;;39.25;36.50;;;;;15.63;36.42;99958.38;5015955;28;45399;-77
2023/12/01 13:29:41;;;;;;;;;37.50;29.00;;;;;15.69;36.32;99954.31;5016388;28;45306;-78
2023/12/01 13:32:06;;;;;;;;;46.75;38.00;;;;;15.58;36.09;99954.28;5015205;28;45392;-77
2023/12/01 13:34:32;;;;;;;;;39.00;37.50;;;;;15.42;36.23;99936.56;5015365;28;45379;-78
2023/12/01 13:36:57;;;;;;;;;37.00;33.50;;;;;15.51;36.31;99952.03;4998034;28;45663;-77
2023/12/01 13:39:23;;;;;;;;;41.25;38.00;;;;;15.55;36.65;99963.50;5016273;28;45440;-78
2023/12/01 13:41:49;;;;;;;;;41.00;32.75;;;;;15.55;36.24;99960.81;5023233;28;45348;-76
2023/12/01 13:44:14;;;;;;;;;37.50;34.00;;;;;15.30;36.29;99921.34;4997820;28;48010;-77
2023/12/01 13:46:40;;;;;;;;;39.75;31.00;;;;;15.42;36.06;99950.06;5015174;28;45350;-76
2023/12/01 13:49:06;;;;;;;;;37.25;31.50;;;;;15.53;36.10;99965.44;5015980;28;45305;-76
2023/12/01 13:51:33;;;;;;;;;32.00;28.00;;;;;15.30;35.94;99944.78;5014669;28;45522;-77
2023/12/01 13:53:58;;;;;;;;;36.50;31.50;;;;;15.46;36.41;99964.19;4997077;28;47355;-78
2023/12/01 13:56:23;;;;;;;;;30.25;29.25;;;;;15.37;36.50;99971.19;5015507;28;45329;-79
2023/12/01 13:58:49;;;;;;;;;33.75;32.50;;;;;15.23;36.20;99957.88;4998338;28;45247;-78
2023/12/01 14:01:15;;;;;;;;;38.00;36.75;;;;;15.15;36.18;99947.66;4997420;28;45533;-75
2023/12/01 14:03:40;;;;;;;;;42.25;35.25;;;;;15.29;36.59;99979.03;4997239;28;47325;-78
2023/12/01 14:06:06;;;;;;;;;37.50;31.00;;;;;15.27;36.07;99994.47;5015586;28;45348;-78
2023/12/01 14:08:31;;;;;;;;;44.00;39.25;;;;;15.20;36.46;99989.66;5015861;28;45336;-78
2023/12/01 14:10:56;;;;;;;;;34.00;32.50;;;;;15.09;36.02;99998.59;5026136;28;45364;-78
2023/12/01 14:13:22;;;;;;;;;41.25;27.00;;;;;15.00;36.45;99981.25;5007625;28;58425;-78
2023/12/01 14:15:47;;;;;;;;;34.50;32.25;;;;;14.85;35.99;99955.44;5015281;28;55386;-78
2023/12/01 14:18:13;;;;;;;;;31.50;25.50;;;;;14.95;36.08;99979.88;5015728;28;45451;-77
2023/12/01 14:20:39;;;;;;;;;37.00;33.75;;;;;14.88;36.21;99982.19;5015041;28;45319;-77
2023/12/01 14:23:04;;;;;;;;;36.25;33.00;;;;;14.95;36.60;99985.28;5015561;28;45342;-76
2023/12/01 14:25:30;;;;;;;;;33.75;32.50;;;;;14.97;36.56;99996.84;5015008;28;45367;-77
2023/12/01 14:27:55;;;;;;;;;35.75;33.75;;;;;14.96;36.16;99997.81;5015307;28;45554;-77
2023/12/01 14:30:21;;;;;;;;;44.00;34.50;;;;;14.96;36.40;100014.00;5030477;28;46081;-77
2023/12/01 14:32:46;;;;;;;;;34.75;30.00;;;;;14.89;36.56;99988.44;5014881;28;45375;-76
2023/12/01 14:35:12;;;;;;;;;37.50;31.50;;;;;14.99;36.04;100013.75;5015432;28;45417;-77
2023/12/01 14:37:39;;;;;;;;;32.75;30.75;;;;;14.99;36.45;100011.06;5015252;28;45237;-76
2023/12/01 14:40:05;;;;;;;;;39.75;36.25;;;;;14.97;36.58;100010.34;5015246;28;45452;-77
2023/12/01 14:42:30;;;;;;;;;35.25;30.75;;;;;14.90;36.36;100006.34;5024686;28;45382;-76
2023/12/01 14:44:55;;;;;;;;;35.75;30.00;;;;;14.94;35.94;100015.94;5018135;28;58292;-76
2023/12/01 14:47:21;;;;;;;;;29.75;25.75;;;;;14.90;36.08;100015.31;5000454;28;45983;-77
2023/12/01 14:49:46;;;;;;;;;36.00;33.75;;;;;14.95;35.95;100014.97;5017139;28;55893;-76
2023/12/01 14:52:11;;;;;;;;;32.00;30.75;;;;;14.99;36.12;100020.00;5015140;28;49380;-78
2023/12/01 14:54:37;;;;;;;;;32.00;29.50;;;;;14.93;35.95;100007.00;5017396;28;45399;-78
2023/12/01 14:57:02;;;;;;;;;35.50;30.75;;;;;14.91;36.58;100018.88;5015314;28;45447;-77
2023/12/01 14:59:28;;;;;;;;;35.00;32.25;;;;;14.80;36.20;99989.16;4996574;28;46009;-77
2023/12/01 15:01:55;;;;;;;;;36.25;30.00;;;;;14.81;36.32;100005.19;5014780;28;45911;-77
2023/12/01 15:04:21;;;;;;;;;36.75;29.50;;;;;14.85;36.19;100016.63;5014192;28;45296;-76
2023/12/01 15:06:46;;;;;;;;;35.00;29.50;;;;;14.89;36.01;100028.91;5014710;28;46050;-77
2023/12/01 15:09:14;;;;;;;;;35.50;31.75;;;;;14.86;36.22;100024.63;5010341;28;45512;-76
2023/12/01 15:11:41;;;;;;;;;35.75;31.75;;;;;14.81;36.46;100012.44;5011220;28;47935;-78
2023/12/01 15:14:07;;;;;;;;;43.50;36.50;;;;;14.88;36.04;100029.91;5014893;28;45431;-75
2023/12/01 15:16:32;;;;;;;;;37.75;33.00;;;;;14.90;36.49;100039.59;5015209;28;45317;-77
2023/12/01 15:18:58;;;;;;;;;37.25;33.00;;;;;14.88;36.55;100048.81;5014365;28;47837;-78
2023/12/01 15:21:24;;;;;;;;;41.00;35.00;;;;;14.91;36.58;100052.13;5014438;28;45494;-77
2023/12/01 15:23:49;;;;;;;;;36.50;29.25;;;;;14.90;36.52;100054.94;5014220;28;45471;-77
2023/12/01 15:26:15;;;;;;;;;32.75;27.00;;;;;14.82;35.61;100051.94;5014898;28;45387;-77
2023/12/01 15:28:43;;;;;;;;;30.50;29.00;;;;;14.69;35.43;100031.28;5014660;28;45460;-76
2023/12/01 15:31:08;;;;;;;;;40.75;31.50;;;;;14.61;35.50;100025.59;5014019;28;46425;-76
2023/12/01 15:33:34;;;;;;;;;38.00;32.25;;;;;14.74;35.68;100055.22;4996281;28;45606;-77
2023/12/01 15:35:59;;;;;;;;;41.00;34.00;;;;;14.68;35.66;100050.28;5013646;28;45261;-78
2023/12/01 15:38:26;;;;;;;;;36.50;33.50;;;;;14.61;35.69;100047.19;5013799;28;45324;-77
2023/12/01 15:40:51;;;;;;;;;48.50;35.25;;;;;14.70;35.86;100068.09;5020299;28;46001;-79
2023/12/01 15:43:16;;;;;;;;;28.75;26.75;;;;;14.74;35.82;100072.25;5015915;28;45430;-76
2023/12/01 15:45:42;;;;;;;;;34.00;30.50;;;;;14.45;36.09;100038.50;5014299;28;45375;-76
2023/12/01 15:48:07;;;;;;;;;33.00;30.00;;;;;14.62;35.28;100065.09;5014224;28;45326;-77
2023/12/01 15:50:33;;;;;;;;;38.75;34.00;;;;;14.54;35.46;100070.19;4996279;28;46786;-76
2023/12/01 15:52:59;;;;;;;;;37.75;31.00;;;;;14.58;35.37;100079.75;4996393;28;45352;-76
2023/12/01 15:55:24;;;;;;;;;36.75;30.00;;;;;14.58;35.25;100087.84;5013814;28;45425;-76
2023/12/01 15:57:50;;;;;;;;;32.50;28.00;;;;;14.62;35.42;100085.81;5014236;28;45382;-76
2023/12/01 16:00:15;;;;;;;;;31.75;27.50;;;;;14.53;35.36;100081.94;5013855;28;45490;-78
2023/12/01 16:02:41;;;;;;;;;29.00;25.75;;;;;14.51;34.75;100088.41;5016032;28;45349;-77
2023/12/01 16:05:06;;;;;;;;;36.25;33.00;;;;;14.46;35.09;100093.28;5016269;28;45465;-79
2023/12/01 16:07:32;;;;;;;;;36.25;30.50;;;;;14.45;35.69;100100.53;5013596;28;45523;-77
2023/12/01 16:09:57;;;;;;;;;32.00;31.75;;;;;14.35;35.46;100091.31;5014106;28;45381;-79
2023/12/01 16:12:23;;;;;;;;;30.50;25.50;;;;;14.33;35.56;100107.59;4996070;28;45570;-77
2023/12/01 16:14:49;;;;;;;;;33.25;29.00;;;;;14.30;35.58;100107.81;5014933;28;45219;-76
2023/12/01 16:17:16;;;;;;;;;42.25;33.50;;;;;14.11;35.05;100093.94;5017415;28;45350;-76
2023/12/01 16:19:42;;;;;;;;;41.75;32.25;;;;;14.19;35.09;100105.03;5019072;28;45408;-76
2023/12/01 16:22:09;;;;;;;;;40.75;31.25;;;;;14.04;35.07;100100.72;5019101;28;45452;-77
2023/12/01 16:24:35;;;;;;;;;34.25;31.75;;;;;14.09;35.30;100119.28;5022678;28;45241;-79
2023/12/01 16:27:00;;;;;;;;;32.00;31.50;;;;;13.99;35.43;100106.44;5016802;28;59099;-78
2023/12/01 16:29:26;;;;;;;;;44.75;30.75;;;;;13.98;34.77;100120.88;5019149;28;46478;-76
2023/12/01 16:31:51;;;;;;;;;36.25;29.50;;;;;13.96;35.16;100117.41;5017645;28;45349;-80
2023/12/01 16:34:17;;;;;;;;;35.25;23.75;;;;;13.78;34.97;100093.63;5018038;28;45336;-79
2023/12/01 16:36:43;;;;;;;;;29.50;26.75;;;;;13.85;35.05;100114.63;4999073;28;46177;-77
2023/12/01 16:39:08;;;;;;;;;31.00;26.75;;;;;13.90;34.76;100120.56;5026421;28;45376;-75
2023/12/01 16:41:34;;;;;;;;;30.50;26.50;;;;;13.82;34.28;100114.84;5027232;28;45535;-76
2023/12/01 16:43:59;;;;;;;;;33.75;30.50;;;;;13.72;34.64;100104.78;5025995;28;45810;-78
2023/12/01 16:46:24;;;;;;;;;31.25;27.00;;;;;13.69;34.44;100116.66;5019462;28;45407;-75
2023/12/01 16:48:50;;;;;;;;;37.75;32.75;;;;;13.74;34.41;100116.31;5023984;28;46080;-75